Time;durP1;ratioP1;P1;durP2;ratioP2;P2;SDS_P1;SDS_P2;PMS_P1;PMS_P2;Temp;Humidity;BMP_temperature;BMP_pressure;BME280_temperature;BME280_humidity;BME280_pressure;Samples;Min_cycle;Max_cycle;Signal;HPM_P1;HPM_P2
2022/01/15 00:10:09;;;;;;;363.75;129.68;;;0.30;99.90;;;;;;5000845;28;20037;-93
2022/01/15 00:12:44;;;;;;;338.10;122.68;;;0.30;99.90;;;;;;5037464;28;20028;-94
2022/01/15 00:15:37;;;;;;;412.90;145.30;;;0.30;99.90;;;;;;5037403;28;20147;-93
2022/01/15 00:18:17;;;;;;;389.20;139.02;;;0.40;99.90;;;;;;5037196;28;20430;-92
2022/01/15 00:20:46;;;;;;;374.77;127.30;;;0.40;99.90;;;;;;5037264;28;20029;-92
2022/01/15 00:23:59;;;;;;;380.75;133.75;;;0.40;99.90;;;;;;5037492;28;20029;-93
2022/01/15 00:26:25;;;;;;;367.65;125.15;;;0.40;99.90;;;;;;5037233;28;20479;-93
2022/01/15 00:29:03;;;;;;;388.35;132.05;;;0.40;99.90;;;;;;5039210;28;20021;-93
2022/01/15 00:31:34;;;;;;;375.10;130.38;;;0.30;99.90;;;;;;5040816;28;20112;-93
2022/01/15 00:34:24;;;;;;;350.20;117.18;;;0.20;99.90;;;;;;5058234;28;20018;-92
2022/01/15 00:36:53;;;;;;;328.60;112.20;;;0.20;99.90;;;;;;5041755;28;20107;-92
2022/01/15 00:39:32;;;;;;;340.50;115.45;;;0.30;99.90;;;;;;5040510;28;20017;-93
2022/01/15 00:42:08;;;;;;;326.13;111.90;;;0.30;99.90;;;;;;5040599;28;20025;-93
2022/01/15 00:44:42;;;;;;;325.60;111.40;;;0.30;99.90;;;;;;5040286;28;20445;-93
2022/01/15 00:47:20;;;;;;;333.92;119.78;;;0.30;99.90;;;;;;5040587;28;20029;-94
2022/01/15 00:50:01;;;;;;;379.60;133.15;;;0.20;99.90;;;;;;5041195;28;20025;-93
2022/01/15 00:56:00;;;;;;;318.10;114.18;;;0.10;99.90;;;;;;4997281;28;20409;-93
2022/01/15 00:58:26;;;;;;;291.45;106.40;;;0.00;99.90;;;;;;5032352;28;20037;-95
2022/01/15 01:01:24;;;;;;;316.88;113.55;;;-0.10;99.90;;;;;;5040720;28;20025;-93
2022/01/15 01:03:56;;;;;;;291.10;100.57;;;-0.10;99.90;;;;;;5032465;28;20025;-93
2022/01/15 01:06:39;;;;;;;265.77;98.35;;;-0.20;99.90;;;;;;5041306;28;20017;-93
2022/01/15 01:09:14;;;;;;;258.73;93.50;;;-0.30;99.90;;;;;;5025889;28;20460;-92
2022/01/15 01:25:20;;;;;;;216.38;80.28;;;-0.20;99.90;;;;;;5058033;28;20036;-93
2022/01/15 01:27:51;;;;;;;274.58;98.93;;;-0.20;99.90;;;;;;5040508;28;20021;-93
2022/01/15 01:30:45;;;;;;;292.50;106.20;;;-0.40;99.90;;;;;;5056792;28;20032;-92
2022/01/15 01:36:13;;;;;;;305.70;107.95;;;-0.40;99.90;;;;;;5056667;28;20138;-92
2022/01/15 01:38:55;;;;;;;267.88;99.78;;;-0.40;99.90;;;;;;5039070;28;20025;-94
2022/01/15 01:41:23;;;;;;;276.17;96.75;;;-0.40;99.90;;;;;;5040455;28;20025;-94
2022/01/15 01:50:06;;;;;;;329.27;115.22;;;-0.30;99.90;;;;;;5057086;28;20050;-93
2022/01/15 01:52:35;;;;;;;326.60;113.72;;;-0.30;99.90;;;;;;5040352;28;20084;-93
2022/01/15 01:55:19;;;;;;;318.67;112.60;;;-0.30;99.90;;;;;;5039309;28;20024;-93
2022/01/15 01:58:03;;;;;;;316.67;110.90;;;-0.40;99.90;;;;;;5039190;28;20433;-92
2022/01/15 02:00:32;;;;;;;293.50;99.07;;;-0.40;99.90;;;;;;5039505;28;20116;-94
2022/01/15 02:09:16;;;;;;;252.25;85.25;;;-0.40;99.90;;;;;;4999067;28;20036;-93
2022/01/15 02:11:43;;;;;;;246.43;90.53;;;-0.40;99.90;;;;;;5039300;28;20079;-94
2022/01/15 02:14:09;;;;;;;237.65;86.63;;;-0.40;99.90;;;;;;5039194;28;20032;-94
2022/01/15 02:16:35;;;;;;;249.07;89.00;;;-0.50;99.90;;;;;;5039945;28;20036;-93
2022/01/15 02:19:07;;;;;;;250.02;91.68;;;-0.50;99.90;;;;;;5039028;28;20029;-93
2022/01/15 02:24:16;;;;;;;205.30;72.95;;;-0.40;99.90;;;;;;5056404;28;20029;-93
2022/01/15 02:26:42;;;;;;;220.27;84.47;;;-0.30;99.90;;;;;;5038977;28;20021;-93
2022/01/15 02:29:18;;;;;;;232.95;83.47;;;-0.20;99.90;;;;;;5039221;28;20382;-93
2022/01/15 02:31:46;;;;;;;203.45;78.45;;;-0.20;99.90;;;;;;5037074;28;20029;-94
2022/01/15 02:34:12;;;;;;;244.80;84.30;;;-0.20;99.90;;;;;;5038720;28;20124;-94
2022/01/15 02:36:38;;;;;;;251.15;92.93;;;-0.20;99.90;;;;;;5039424;28;20067;-93
2022/01/15 02:39:05;;;;;;;205.52;79.13;;;-0.20;99.90;;;;;;5039416;28;20028;-93
2022/01/15 02:41:38;;;;;;;218.60;79.05;;;-0.30;99.90;;;;;;5037949;28;20032;-93
2022/01/15 02:44:09;;;;;;;212.18;81.97;;;-0.30;99.90;;;;;;5038653;28;20072;-93
2022/01/15 02:48:00;;;;;;;191.07;72.70;;;-0.30;99.90;;;;;;5039445;28;20108;-95
2022/01/15 02:49:26;;;;;;;231.55;88.82;;;-0.30;99.90;;;;;;5053898;28;20388;-94
2022/01/15 02:51:52;;;;;;;215.32;81.88;;;-0.20;99.90;;;;;;5038033;28;20060;-93
2022/01/15 02:54:18;;;;;;;223.50;81.95;;;-0.20;99.90;;;;;;5038031;28;20028;-93
2022/01/15 02:56:46;;;;;;;199.82;74.72;;;-0.30;99.90;;;;;;5038292;28;20029;-93
2022/01/15 02:59:26;;;;;;;190.40;73.22;;;-0.20;99.90;;;;;;5038200;28;20025;-94
2022/01/15 03:01:52;;;;;;;173.85;67.55;;;-0.20;99.90;;;;;;5038835;28;20021;-93
2022/01/15 03:04:19;;;;;;;181.60;71.47;;;-0.20;99.90;;;;;;5037688;28;20487;-93
2022/01/15 03:06:48;;;;;;;178.68;68.47;;;-0.20;99.90;;;;;;5038925;28;20017;-94
2022/01/15 03:09:14;;;;;;;173.75;68.70;;;-0.20;99.90;;;;;;5038253;28;20047;-93
2022/01/15 03:11:45;;;;;;;221.68;81.65;;;-0.20;99.90;;;;;;5038244;28;20550;-93
2022/01/15 03:14:18;;;;;;;204.23;76.80;;;-0.30;99.90;;;;;;5038100;28;20116;-94
2022/01/15 03:16:47;;;;;;;213.88;80.15;;;-0.60;99.90;;;;;;5039142;28;20116;-92
2022/01/15 08:06:14;;;;;;;314.85;120.63;;;0.00;99.90;;;;;;4940303;27;5578150;-94
2022/01/15 08:08:45;;;;;;;338.13;128.60;;;0.00;99.90;;;;;;5109290;28;20074;-93
2022/01/15 08:11:14;;;;;;;306.35;122.15;;;0.20;99.90;;;;;;5112793;28;20032;-94
2022/01/15 08:13:53;;;;;;;269.63;106.88;;;0.50;99.90;;;;;;5112324;28;20032;-94
2022/01/15 08:16:21;;;;;;;302.55;114.20;;;0.70;99.90;;;;;;5112102;28;20085;-93
2022/01/15 08:18:50;;;;;;;289.33;119.97;;;1.10;99.90;;;;;;5112967;28;20461;-94
2022/01/15 08:21:16;;;;;;;357.15;143.00;;;1.30;99.90;;;;;;5112245;28;20020;-94
2022/01/15 08:23:57;;;;;;;403.58;161.10;;;1.40;99.90;;;;;;5112454;28;20072;-94
2022/01/15 08:26:25;;;;;;;413.52;167.07;;;1.50;99.90;;;;;;5111639;28;20016;-94
